Time;durP1;ratioP1;P1;durP2;ratioP2;P2;SDS_P1;SDS_P2;PMS_P1;PMS_P2;Temp;Humidity;BMP_temperature;BMP_pressure;BME280_temperature;BME280_humidity;BME280_pressure;Samples;Min_cycle;Max_cycle;Signal;HPM_P1;HPM_P2
2021/07/09 00:05:12;;;;;;;25.95;23.17;;;;;;;0.01;0.00;59042.03;10315728;28;20501;-60
2021/07/09 00:10:11;;;;;;;8.48;7.57;;;;;;;0.01;0.00;59042.03;10315635;28;20073;-60
2021/07/09 00:15:10;;;;;;;14.68;13.25;;;;;;;0.01;0.00;59042.03;10316536;28;20090;-60
2021/07/09 00:20:11;;;;;;;51.85;45.92;;;;;;;0.01;0.00;59042.03;10316611;28;20043;-60
2021/07/09 00:25:11;;;;;;;17.88;15.90;;;;;;;0.01;0.00;59042.03;10315880;28;20521;-57
2021/07/09 00:30:11;;;;;;;10.73;8.63;;;;;;;0.01;0.00;59042.03;10316023;28;20044;-55
2021/07/09 00:35:12;;;;;;;15.68;14.07;;;;;;;0.01;0.00;59042.03;10315525;28;20087;-57
2021/07/09 00:40:12;;;;;;;17.63;15.82;;;;;;;0.01;0.00;59042.03;10316022;28;20076;-58
2021/07/09 00:45:13;;;;;;;16.25;14.20;;;;;;;0.01;0.00;59042.03;10324895;28;20052;-57
2021/07/09 00:50:14;;;;;;;17.25;14.50;;;;;;;0.01;0.00;59042.03;10329133;28;20044;-57
2021/07/09 00:55:15;;;;;;;12.15;10.15;;;;;;;0.01;0.00;59042.03;10328865;28;20094;-57
2021/07/09 01:00:16;;;;;;;10.05;9.20;;;;;;;0.01;0.00;59042.03;10329187;28;20431;-57
2021/07/09 01:05:18;;;;;;;9.48;8.57;;;;;;;0.01;0.00;59042.03;10329096;28;20111;-58
2021/07/09 01:10:19;;;;;;;10.52;9.20;;;;;;;0.01;0.00;59042.03;10327529;28;20048;-59
2021/07/09 01:15:19;;;;;;;8.98;7.93;;;;;;;0.01;0.00;59042.03;10327865;28;20473;-57
2021/07/09 01:20:21;;;;;;;8.50;7.70;;;;;;;0.01;0.00;59042.03;10328368;28;20518;-57
2021/07/09 01:25:23;;;;;;;13.95;8.30;;;;;;;0.01;0.00;59042.03;10327749;28;20545;-57
2021/07/09 01:30:24;;;;;;;9.10;8.27;;;;;;;0.01;0.00;59042.03;10328322;28;20051;-57
2021/07/09 01:35:25;;;;;;;9.23;8.25;;;;;;;0.01;0.00;59042.03;10328663;28;20083;-57
2021/07/09 01:40:27;;;;;;;9.50;8.70;;;;;;;0.01;0.00;59042.03;10328113;28;20047;-55
2021/07/09 01:45:26;;;;;;;11.20;9.43;;;;;;;0.01;0.00;59042.03;10327045;28;20068;-57
2021/07/09 01:50:26;;;;;;;11.23;10.13;;;;;;;0.01;0.00;59042.03;10327094;28;20040;-57
2021/07/09 01:55:26;;;;;;;11.45;10.35;;;;;;;0.01;0.00;59042.03;10323730;28;20482;-56
2021/07/09 02:00:26;;;;;;;14.38;13.07;;;;;;;0.01;0.00;59042.03;10321172;28;20051;-57
2021/07/09 02:05:26;;;;;;;16.88;15.13;;;;;;;0.01;0.00;59042.03;10320601;28;20071;-57
2021/07/09 02:10:32;;;;;;;15.57;13.88;;;;;;;0.01;0.00;59042.03;10321331;28;20287;-56
2021/07/09 02:15:33;;;;;;;13.13;11.95;;;;;;;0.01;0.00;59042.03;10320789;28;20076;-58
2021/07/09 02:20:32;;;;;;;13.48;12.13;;;;;;;0.01;0.00;59042.03;10321047;28;20514;-56
2021/07/09 02:25:33;;;;;;;11.00;9.98;;;;;;;0.01;0.00;59042.03;10320141;28;20076;-57
2021/07/09 02:30:32;;;;;;;10.65;9.75;;;;;;;0.01;0.00;59042.03;10320693;28;20462;-56
2021/07/09 02:35:34;;;;;;;10.38;9.38;;;;;;;0.01;0.00;59042.03;10319580;28;20087;-55
2021/07/09 02:40:35;;;;;;;10.80;9.80;;;;;;;0.01;0.00;59042.03;10301089;28;20374;-57
2021/07/09 02:45:34;;;;;;;16.08;13.93;;;;;;;0.01;0.00;59042.03;10319172;28;20067;-55
2021/07/09 02:50:49;;;;;;;13.73;12.43;;;;;;;0.01;0.00;59042.03;10318736;28;20396;-58
2021/07/09 02:55:49;;;;;;;12.20;11.02;;;;;;;0.01;0.00;59042.03;10318009;28;20080;-58
2021/07/09 03:00:47;;;;;;;12.00;10.98;;;;;;;0.01;0.00;59042.03;10318143;28;20056;-57
2021/07/09 03:05:46;;;;;;;11.48;10.32;;;;;;;0.01;0.00;59042.03;10316155;28;20079;-57
2021/07/09 03:10:45;;;;;;;15.60;14.20;;;;;;;0.01;0.00;59042.03;10315299;28;20414;-56
2021/07/09 03:15:45;;;;;;;12.23;11.02;;;;;;;0.01;0.00;59042.03;10297466;28;20094;-54
2021/07/09 03:20:45;;;;;;;11.85;10.85;;;;;;;0.01;0.00;59042.03;10295329;28;20083;-57
2021/07/09 03:25:43;;;;;;;12.50;10.77;;;;;;;0.01;0.00;59042.03;10313477;28;20520;-57
2021/07/09 03:30:43;;;;;;;12.27;11.10;;;;;;;0.01;0.00;59042.03;10317022;28;20045;-57
2021/07/09 03:35:43;;;;;;;11.43;10.32;;;;;;;0.01;0.00;59042.03;10312864;28;20075;-57
2021/07/09 03:40:41;;;;;;;11.25;10.20;;;;;;;0.01;0.00;59042.03;10271405;28;20091;-56
2021/07/09 03:45:40;;;;;;;14.18;12.63;;;;;;;0.01;0.00;59042.03;10253959;28;20084;-57
2021/07/09 03:50:39;;;;;;;11.82;10.63;;;;;;;0.01;0.00;59042.03;10234081;28;20076;-55
2021/07/09 03:55:39;;;;;;;14.50;10.45;;;;;;;0.01;0.00;59042.03;10232749;28;20137;-57
2021/07/09 04:00:38;;;;;;;11.07;10.07;;;;;;;0.01;0.00;59042.03;10234655;28;20037;-57
2021/07/09 04:05:37;;;;;;;12.15;10.90;;;;;;;0.01;0.00;59042.03;10233893;28;20660;-56
2021/07/09 04:10:36;;;;;;;11.23;10.10;;;;;;;0.01;0.00;59042.03;10215789;28;20056;-57
2021/07/09 04:15:36;;;;;;;12.18;11.00;;;;;;;0.01;0.00;59042.03;10233593;28;20080;-57
2021/07/09 04:20:34;;;;;;;12.60;11.40;;;;;;;0.01;0.00;59042.03;10233041;28;20399;-55
2021/07/09 04:25:33;;;;;;;16.27;10.57;;;;;;;0.01;0.00;59042.03;10231911;28;20073;-57
2021/07/09 04:30:33;;;;;;;21.92;19.70;;;;;;;0.01;0.00;59042.03;10232769;28;20073;-58
2021/07/09 04:35:33;;;;;;;11.32;10.32;;;;;;;0.01;0.00;59042.03;10233751;28;20076;-57
2021/07/09 04:40:32;;;;;;;12.23;11.02;;;;;;;0.01;0.00;59042.03;10229537;28;20109;-54
2021/07/09 04:45:31;;;;;;;12.70;10.95;;;;;;;0.01;0.00;59042.03;10229296;28;20088;-55
2021/07/09 04:50:30;;;;;;;11.75;10.65;;;;;;;0.01;0.00;59042.03;10229019;28;20099;-57
2021/07/09 04:55:30;;;;;;;12.15;11.02;;;;;;;0.01;0.00;59042.03;10231034;28;20538;-56
2021/07/09 05:00:29;;;;;;;11.75;10.65;;;;;;;0.01;0.00;59042.03;10232474;28;20049;-57
2021/07/09 05:05:28;;;;;;;11.80;10.25;;;;;;;0.01;0.00;59042.03;10232558;28;20045;-57
2021/07/09 05:10:27;;;;;;;10.90;9.75;;;;;;;0.01;0.00;59042.03;10214300;28;20042;-57
2021/07/09 05:15:28;;;;;;;11.07;9.98;;;;;;;0.01;0.00;59042.03;10231108;28;20081;-56
2021/07/09 05:20:27;;;;;;;11.43;10.23;;;;;;;0.01;0.00;59042.03;10214253;28;20068;-54
2021/07/09 05:25:26;;;;;;;10.82;9.90;;;;;;;0.01;0.00;59042.03;10232455;28;20048;-57
2021/07/09 05:30:25;;;;;;;18.33;11.13;;;;;;;0.01;0.00;59042.03;10236859;28;20060;-56
2021/07/09 05:35:25;;;;;;;12.63;11.07;;;;;;;0.01;0.00;59042.03;10239914;28;20073;-54
2021/07/09 05:40:24;;;;;;;11.95;10.80;;;;;;;0.01;0.00;59042.03;10239513;28;20041;-57
2021/07/09 05:45:23;;;;;;;12.07;10.77;;;;;;;0.01;0.00;59042.03;10238816;28;20086;-56
2021/07/09 05:50:23;;;;;;;17.20;15.50;;;;;;;0.01;0.00;59042.03;10239581;28;20070;-56
2021/07/09 05:55:23;;;;;;;15.75;13.55;;;;;;;0.01;0.00;59042.03;10238873;28;20088;-56
2021/07/09 06:00:22;;;;;;;15.00;13.38;;;;;;;0.01;0.00;59042.03;10239472;28;20053;-57
2021/07/09 06:05:21;;;;;;;17.08;12.00;;;;;;;0.01;0.00;59042.03;10238390;28;20495;-57
2021/07/09 06:10:20;;;;;;;13.98;12.57;;;;;;;0.01;0.00;59042.03;10237982;28;20471;-57
2021/07/09 06:15:21;;;;;;;16.58;14.52;;;;;;;0.01;0.00;59042.03;10238406;28;20084;-57
2021/07/09 06:20:20;;;;;;;10.57;9.57;;;;;;;0.01;0.00;59042.03;10237687;28;20052;-57
2021/07/09 06:25:18;;;;;;;10.15;8.75;;;;;;;0.01;0.00;59042.03;10237743;28;20052;-57
2021/07/09 06:30:17;;;;;;;11.60;9.30;;;;;;;0.01;0.00;59042.03;10237058;28;20080;-57
2021/07/09 06:35:17;;;;;;;10.27;8.05;;;;;;;0.01;0.00;59042.03;10238059;28;20073;-57
2021/07/09 06:40:17;;;;;;;9.40;8.48;;;;;;;0.01;0.00;59042.03;10236426;28;20392;-56
2021/07/09 06:45:16;;;;;;;13.38;9.10;;;;;;;0.01;0.00;59042.03;10236588;28;20551;-57
2021/07/09 06:50:15;;;;;;;8.20;7.50;;;;;;;0.01;0.00;59042.03;10237049;28;20065;-56
2021/07/09 06:55:17;;;;;;;8.88;8.07;;;;;;;0.01;0.00;59042.03;10235473;28;20088;-54
2021/07/09 07:00:18;;;;;;;9.55;7.78;;;;;;;0.01;0.00;59042.03;10236963;28;20065;-56
2021/07/09 07:05:17;;;;;;;9.43;7.57;;;;;;;0.01;0.00;59042.03;10235748;28;20474;-57
2021/07/09 07:10:17;;;;;;;8.55;7.75;;;;;;;0.01;0.00;59042.03;10236136;28;20068;-57
2021/07/09 07:15:16;;;;;;;8.20;7.43;;;;;;;0.01;0.00;59042.03;10236271;28;20080;-58
2021/07/09 07:20:15;;;;;;;9.02;7.55;;;;;;;0.01;0.00;59042.03;10236161;28;20081;-57
2021/07/09 07:25:14;;;;;;;7.82;7.07;;;;;;;0.01;0.00;59042.03;10235536;28;20045;-57
2021/07/09 07:30:16;;;;;;;11.60;8.50;;;;;;;0.01;0.00;59042.03;10236099;28;20049;-56
2021/07/09 07:35:15;;;;;;;11.70;7.97;;;;;;;0.01;0.00;59042.03;10234769;28;20092;-57
2021/07/09 07:40:14;;;;;;;11.00;8.27;;;;;;;0.01;0.00;59042.03;10234350;28;20278;-56
2021/07/09 07:45:15;;;;;;;11.88;7.40;;;;;;;0.01;0.00;59042.03;10235012;28;20096;-57
2021/07/09 07:50:16;;;;;;;11.57;8.07;;;;;;;0.01;0.00;59042.03;10235031;28;20077;-55
2021/07/09 07:55:16;;;;;;;8.05;7.22;;;;;;;0.01;0.00;59042.03;10234116;28;20069;-55
2021/07/09 08:00:17;;;;;;;8.80;7.78;;;;;;;0.01;0.00;59042.03;10234438;28;20049;-56
2021/07/09 08:05:16;;;;;;;7.90;7.07;;;;;;;0.01;0.00;59042.03;10233916;28;20053;-56
2021/07/09 08:10:14;;;;;;;9.82;8.20;;;;;;;0.01;0.00;59042.03;10234230;28;20069;-55
2021/07/09 08:15:13;;;;;;;8.45;7.53;;;;;;;0.01;0.00;59042.03;10233529;28;20400;-57
2021/07/09 08:20:14;;;;;;;10.05;7.90;;;;;;;0.01;0.00;59042.03;10233171;28;20687;-57
2021/07/09 08:25:16;;;;;;;11.63;7.85;;;;;;;0.01;0.00;59042.03;10233630;28;20050;-56
2021/07/09 08:30:15;;;;;;;8.75;7.70;;;;;;;0.01;0.00;59042.03;10215465;28;20053;-57
2021/07/09 08:35:15;;;;;;;7.82;7.00;;;;;;;0.01;0.00;59042.03;10233326;28;20069;-57
2021/07/09 08:40:22;;;;;;;7.05;6.22;;;;;;;0.01;0.00;59042.03;10233447;28;20042;-57
2021/07/09 08:45:21;;;;;;;9.32;7.70;;;;;;;0.01;0.00;59042.03;10232493;28;20049;-54
2021/07/09 08:50:21;;;;;;;14.65;7.57;;;;;;;0.01;0.00;59042.03;10232715;28;20080;-50
2021/07/09 08:55:20;;;;;;;7.50;6.65;;;;;;;0.01;0.00;59042.03;10232949;28;20041;-50
2021/07/09 09:00:41;;;;;;;7.85;5.72;;;;;;;0.01;0.00;59042.03;10214864;28;20418;-49
2021/07/09 09:05:41;;;;;;;5.72;5.28;;;;;;;0.01;0.00;59042.03;10237417;28;20566;-49
2021/07/09 09:10:41;;;;;;;10.23;6.80;;;;;;;0.01;0.00;59042.03;10240647;28;20555;-49
2021/07/09 09:15:41;;;;;;;8.80;6.43;;;;;;;0.01;0.00;59042.03;10240777;28;20514;-53
2021/07/09 09:21:03;;;;;;;13.30;5.68;;;;;;;0.01;0.00;59042.03;10240447;28;20050;-50
2021/07/09 09:26:04;;;;;;;8.07;5.05;;;;;;;0.01;0.00;59042.03;10240383;28;20091;-50
2021/07/09 09:31:02;;;;;;;6.47;4.38;;;;;;;0.01;0.00;59042.03;10240335;28;20077;-54
2021/07/09 09:36:07;;;;;;;10.20;5.97;;;;;;;0.01;0.00;59042.03;10240093;28;20073;-53
2021/07/09 09:41:17;;;;;;;6.00;5.40;;;;;;;0.01;0.00;59042.03;10240358;28;20048;-53
2021/07/09 09:46:26;;;;;;;11.07;6.00;;;;;;;0.01;0.00;59042.03;10239408;28;20096;-50
2021/07/09 09:51:28;;;;;;;6.60;5.70;;;;;;;0.01;0.00;59042.03;10238672;28;20064;-50
2021/07/09 09:56:35;;;;;;;8.93;6.30;;;;;;;0.01;0.00;59042.03;10239449;28;20076;-52
2021/07/09 10:01:33;;;;;;;10.27;6.15;;;;;;;0.01;0.00;59042.03;10239092;28;20519;-51
2021/07/09 10:06:39;;;;;;;6.88;4.80;;;;;;;0.01;0.00;59042.03;10239095;28;20057;-51
2021/07/09 10:11:39;;;;;;;3.90;3.50;;;;;;;0.01;0.00;59042.03;10220468;28;20087;-53
2021/07/09 10:16:39;;;;;;;8.52;4.65;;;;;;;0.01;0.00;59042.03;10237535;28;20095;-54
2021/07/09 10:21:40;;;;;;;9.55;4.30;;;;;;;0.01;0.00;59042.03;10238352;28;20541;-55
2021/07/09 10:26:44;;;;;;;5.78;5.07;;;;;;;0.01;0.00;59042.03;10238001;28;20060;-50
2021/07/09 10:31:44;;;;;;;7.03;4.78;;;;;;;0.01;0.00;59042.03;10238373;28;20422;-52
2021/07/09 10:36:51;;;;;;;11.75;3.95;;;;;;;0.01;0.00;59042.03;10237858;28;20453;-50
2021/07/09 10:41:50;;;;;;;6.28;5.13;;;;;;;0.01;0.00;59042.03;10238268;28;20045;-54
2021/07/09 10:46:49;;;;;;;11.90;4.30;;;;;;;0.01;0.00;59042.03;10236484;28;20049;-53
2021/07/09 10:51:50;;;;;;;10.70;5.00;;;;;;;0.01;0.00;59042.03;10237602;28;20072;-52
2021/07/09 10:57:09;;;;;;;13.40;3.67;;;;;;;0.01;0.00;59042.03;10236416;28;20077;-53
2021/07/09 11:02:08;;;;;;;7.22;5.68;;;;;;;0.01;0.00;59042.03;10237341;28;20045;-50
2021/07/09 11:07:21;;;;;;;11.52;5.22;;;;;;;0.01;0.00;59042.03;10236556;28;20418;-48
2021/07/09 11:12:29;;;;;;;10.43;4.40;;;;;;;0.01;0.00;59042.03;10236085;28;20108;-50
2021/07/09 11:17:42;;;;;;;4.15;3.10;;;;;;;0.01;0.00;59042.03;10234390;28;20077;-54
2021/07/09 11:22:47;;;;;;;4.15;3.28;;;;;;;0.01;0.00;59042.03;10236731;28;20483;-51
2021/07/09 11:27:51;;;;;;;5.88;3.38;;;;;;;0.01;0.00;59042.03;10234809;28;20065;-51
2021/07/09 11:32:55;;;;;;;6.97;2.97;;;;;;;0.01;0.00;59042.03;10235003;28;20076;-52
2021/07/09 11:37:55;;;;;;;5.75;3.15;;;;;;;0.01;0.00;59042.03;10234642;28;20100;-53
2021/07/09 11:42:54;;;;;;;10.10;2.90;;;;;;;0.01;0.00;59042.03;10234753;28;20080;-49
2021/07/09 11:48:01;;;;;;;6.57;2.85;;;;;;;0.01;0.00;59042.03;10234295;28;20060;-52
2021/07/09 11:53:02;;;;;;;3.28;2.35;;;;;;;0.01;0.00;59042.03;10234643;28;20053;-52
2021/07/09 11:58:05;;;;;;;7.03;2.58;;;;;;;0.01;0.00;59042.03;10234297;28;20073;-49
2021/07/09 12:03:04;;;;;;;;;;;;;;;0.01;0.00;59042.03;10234465;28;20444;-49
2021/07/09 12:08:09;;;;;;;3.38;3.03;;;;;;;0.01;0.00;59042.03;10233977;28;19921;-48
2021/07/09 12:13:08;;;;;;;5.88;2.60;;;;;;;0.01;0.00;59042.03;10234065;28;20415;-50
2021/07/09 12:18:08;;;;;;;4.18;2.88;;;;;;;0.01;0.00;59042.03;10232812;28;20096;-50
2021/07/09 12:23:10;;;;;;;5.22;3.13;;;;;;;0.01;0.00;59042.03;10233141;28;20527;-49
2021/07/09 12:28:11;;;;;;;4.20;2.30;;;;;;;0.01;0.00;59042.03;10232559;28;20084;-49
2021/07/09 12:33:13;;;;;;;2.78;2.30;;;;;;;0.01;0.00;59042.03;10232852;28;20080;-49
2021/07/09 12:38:22;;;;;;;3.63;3.20;;;;;;;0.01;0.00;59042.03;10232155;28;20100;-50
2021/07/09 12:43:23;;;;;;;4.55;2.97;;;;;;;0.01;0.00;59042.03;10233569;28;20069;-47
2021/07/09 12:48:33;;;;;;;5.40;3.20;;;;;;;0.01;0.00;59042.03;10232783;28;20092;-48
2021/07/09 12:53:35;;;;;;;4.05;2.63;;;;;;;0.01;0.00;59042.03;10232913;28;20060;-50
2021/07/09 12:58:34;;;;;;;5.88;2.70;;;;;;;0.01;0.00;59042.03;10232715;28;20077;-50
2021/07/09 13:03:34;;;;;;;5.63;2.70;;;;;;;0.01;0.00;59042.03;10214778;28;20072;-49
2021/07/09 13:08:35;;;;;;;7.05;2.25;;;;;;;0.01;0.00;59042.03;10232451;28;20049;-47
2021/07/09 13:13:36;;;;;;;3.00;2.22;;;;;;;0.01;0.00;59042.03;10231805;28;20046;-48
2021/07/09 13:18:36;;;;;;;9.00;2.88;;;;;;;0.01;0.00;59042.03;10232422;28;20517;-46
2021/07/09 13:23:38;;;;;;;9.65;2.60;;;;;;;0.01;0.00;59042.03;10232884;28;20045;-48
2021/07/09 13:28:44;;;;;;;3.42;3.10;;;;;;;0.01;0.00;59042.03;10232109;28;20519;-48
2021/07/09 13:33:48;;;;;;;6.17;2.93;;;;;;;0.01;0.00;59042.03;10231456;28;20406;-48
2021/07/09 13:38:48;;;;;;;8.00;3.88;;;;;;;0.01;0.00;59042.03;10232120;28;20083;-48
2021/07/09 13:43:49;;;;;;;3.88;2.67;;;;;;;0.01;0.00;59042.03;10232635;28;20081;-51
2021/07/09 13:48:47;;;;;;;3.78;2.80;;;;;;;0.01;0.00;59042.03;10232085;28;20073;-50
2021/07/09 13:53:48;;;;;;;4.20;3.10;;;;;;;0.01;0.00;59042.03;10238495;28;20046;-51
2021/07/09 13:58:47;;;;;;;8.10;3.72;;;;;;;0.01;0.00;59042.03;10238105;28;20084;-47
2021/07/09 14:03:46;;;;;;;6.47;2.42;;;;;;;0.01;0.00;59042.03;10238762;28;20092;-51
2021/07/09 14:08:45;;;;;;;4.00;3.33;;;;;;;0.01;0.00;59042.03;10238672;28;20076;-53
2021/07/09 14:13:45;;;;;;;4.80;2.47;;;;;;;0.01;0.00;59042.03;10238138;28;20077;-55
2021/07/09 14:18:44;;;;;;;6.00;2.67;;;;;;;0.01;0.00;59042.03;10237260;28;20546;-56
2021/07/09 14:23:43;;;;;;;10.85;3.60;;;;;;;0.01;0.00;59042.03;10238227;28;20045;-55
2021/07/09 14:28:42;;;;;;;3.65;2.75;;;;;;;0.01;0.00;59042.03;10257775;28;20069;-57
2021/07/09 14:33:42;;;;;;;4.80;3.75;;;;;;;0.01;0.00;59042.03;10272820;28;20069;-56
2021/07/09 14:38:40;;;;;;;4.13;2.47;;;;;;;0.01;0.00;59042.03;10276832;28;20076;-52
2021/07/09 14:43:39;;;;;;;13.45;6.93;;;;;;;0.01;0.00;59042.03;10276093;28;20536;-48
2021/07/09 14:48:38;;;;;;;5.57;2.95;;;;;;;0.01;0.00;59042.03;10316405;28;20078;-55
2021/07/09 14:53:38;;;;;;;6.03;2.30;;;;;;;0.01;0.00;59042.03;10314205;28;20489;-55
2021/07/09 14:58:37;;;;;;;5.55;3.42;;;;;;;0.01;0.00;59042.03;10312368;28;20068;-49
2021/07/09 15:03:36;;;;;;;7.68;2.92;;;;;;;0.01;0.00;59042.03;10316115;28;20076;-57
2021/07/09 15:08:34;;;;;;;4.25;3.78;;;;;;;0.01;0.00;59042.03;10315252;28;20068;-50
2021/07/09 15:13:35;;;;;;;8.85;7.13;;;;;;;0.01;0.00;59042.03;10313196;28;20061;-55
2021/07/09 15:18:33;;;;;;;6.55;3.83;;;;;;;0.01;0.00;59042.03;10313322;28;20088;-56
2021/07/09 15:23:32;;;;;;;5.28;3.10;;;;;;;0.01;0.00;59042.03;10314221;28;20069;-56
2021/07/09 15:28:31;;;;;;;12.60;3.30;;;;;;;0.01;0.00;59042.03;10315365;28;20044;-54
2021/07/09 15:33:31;;;;;;;4.20;3.50;;;;;;;0.01;0.00;59042.03;10316507;28;20090;-55
2021/07/09 15:38:30;;;;;;;4.15;3.00;;;;;;;0.01;0.00;59042.03;10311170;28;20068;-51
2021/07/09 15:43:29;;;;;;;3.28;2.70;;;;;;;0.01;0.00;59042.03;10315224;28;20072;-55
2021/07/09 15:48:28;;;;;;;10.40;2.83;;;;;;;0.01;0.00;59042.03;10315890;28;20080;-55
2021/07/09 15:53:28;;;;;;;11.30;4.97;;;;;;;0.01;0.00;59042.03;10316464;28;20086;-56
2021/07/09 15:58:27;;;;;;;6.78;3.30;;;;;;;0.01;0.00;59042.03;10315376;28;20067;-56
2021/07/09 16:03:25;;;;;;;6.10;3.22;;;;;;;0.01;0.00;59042.03;10314222;28;20517;-55
2021/07/09 16:08:24;;;;;;;7.20;3.90;;;;;;;0.01;0.00;59042.03;10313882;28;20094;-53
2021/07/09 16:13:24;;;;;;;7.13;3.72;;;;;;;0.01;0.00;59042.03;10313459;28;20072;-52
2021/07/09 16:18:23;;;;;;;8.20;4.45;;;;;;;0.01;0.00;59042.03;10313150;28;20124;-53
2021/07/09 16:23:35;;;;;;;8.65;3.20;;;;;;;0.01;0.00;59042.03;10313679;28;20421;-49
2021/07/09 16:28:35;;;;;;;6.00;2.90;;;;;;;0.01;0.00;59042.03;10315557;28;20044;-53
2021/07/09 16:33:34;;;;;;;12.70;5.30;;;;;;;0.01;0.00;59042.03;10311967;28;20068;-50
2021/07/09 16:38:33;;;;;;;8.63;5.60;;;;;;;0.01;0.00;59042.03;10310839;28;20071;-53
2021/07/09 16:43:32;;;;;;;11.50;9.55;;;;;;;0.01;0.00;59042.03;10310846;28;20462;-55
2021/07/09 16:48:32;;;;;;;8.90;7.20;;;;;;;0.01;0.00;59042.03;10311592;28;20084;-55
2021/07/09 16:53:31;;;;;;;16.00;8.43;;;;;;;0.01;0.00;59042.03;10314147;28;20493;-54
2021/07/09 16:58:29;;;;;;;9.55;7.70;;;;;;;0.01;0.00;59042.03;10314614;28;20268;-53
2021/07/09 17:03:28;;;;;;;9.27;6.13;;;;;;;0.01;0.00;59042.03;10314206;28;20068;-54
2021/07/09 17:08:29;;;;;;;8.73;5.55;;;;;;;0.01;0.00;59042.03;10314119;28;20118;-50
2021/07/09 17:13:28;;;;;;;8.45;6.05;;;;;;;0.01;0.00;59042.03;10314324;28;20490;-58
2021/07/09 17:18:27;;;;;;;6.78;3.92;;;;;;;0.01;0.00;59042.03;10313651;28;20033;-57
2021/07/09 17:23:26;;;;;;;10.05;8.57;;;;;;;0.01;0.00;59042.03;10313581;28;20484;-57
2021/07/09 17:28:26;;;;;;;9.70;5.90;;;;;;;0.01;0.00;59042.03;10321157;28;20440;-57
2021/07/09 17:33:24;;;;;;;9.82;5.30;;;;;;;0.01;0.00;59042.03;10321806;28;20068;-58
2021/07/09 17:38:23;;;;;;;11.43;5.30;;;;;;;0.01;0.00;59042.03;10320751;28;20045;-58
2021/07/09 17:43:22;;;;;;;8.10;5.18;;;;;;;0.01;0.00;59042.03;10318415;28;20469;-58
2021/07/09 17:48:22;;;;;;;11.55;5.80;;;;;;;0.01;0.00;59042.03;10296552;28;20068;-57
2021/07/09 17:53:21;;;;;;;10.02;4.25;;;;;;;0.01;0.00;59042.03;10299829;28;20068;-58
2021/07/09 17:58:20;;;;;;;14.65;3.97;;;;;;;0.01;0.00;59042.03;10294601;28;20570;-58
2021/07/09 18:03:19;;;;;;;6.38;4.55;;;;;;;0.01;0.00;59042.03;10282809;28;20076;-58
2021/07/09 18:08:19;;;;;;;12.63;7.63;;;;;;;0.01;0.00;59042.03;10290671;28;20081;-57
2021/07/09 18:13:18;;;;;;;10.48;7.38;;;;;;;0.01;0.00;59042.03;10300168;28;20516;-57
2021/07/09 18:18:16;;;;;;;12.75;4.70;;;;;;;0.01;0.00;59042.03;10290563;28;20077;-58
2021/07/09 18:23:16;;;;;;;22.63;13.40;;;;;;;0.01;0.00;59042.03;10278261;28;20084;-58
2021/07/09 18:28:17;;;;;;;13.02;8.02;;;;;;;0.01;0.00;59042.03;10302176;28;20132;-58
2021/07/09 18:33:16;;;;;;;11.93;5.10;;;;;;;0.01;0.00;59042.03;10312131;28;20079;-58
2021/07/09 18:38:15;;;;;;;8.18;4.57;;;;;;;0.01;0.00;59042.03;10318207;28;20079;-58
2021/07/09 18:43:14;;;;;;;6.07;3.85;;;;;;;0.01;0.00;59042.03;10316356;28;20107;-58
2021/07/09 18:48:14;;;;;;;5.20;3.63;;;;;;;0.01;0.00;59042.03;10319450;28;20053;-58
2021/07/09 18:53:13;;;;;;;15.07;6.63;;;;;;;0.01;0.00;59042.03;10315646;28;20063;-58
2021/07/09 18:58:12;;;;;;;10.73;4.55;;;;;;;0.01;0.00;59042.03;10316923;28;20052;-51
2021/07/09 19:03:11;;;;;;;6.97;4.75;;;;;;;0.01;0.00;59042.03;10300176;28;20118;-57
2021/07/09 19:08:11;;;;;;;11.15;4.55;;;;;;;0.01;0.00;59042.03;10315844;28;20477;-56
2021/07/09 19:13:11;;;;;;;12.48;5.18;;;;;;;0.01;0.00;59042.03;10316572;28;20048;-57
2021/07/09 19:18:10;;;;;;;9.23;5.32;;;;;;;0.01;0.00;59042.03;10314751;28;20060;-57
2021/07/09 19:23:09;;;;;;;9.43;5.55;;;;;;;0.01;0.00;59042.03;10308552;28;20084;-57
2021/07/09 19:28:09;;;;;;;6.72;3.75;;;;;;;0.01;0.00;59042.03;10306012;28;20072;-58
2021/07/09 19:33:11;;;;;;;7.18;3.60;;;;;;;0.01;0.00;59042.03;10305935;28;20726;-60
2021/07/09 19:38:11;;;;;;;10.80;4.27;;;;;;;0.01;0.00;59042.03;10296426;28;20059;-59
2021/07/09 19:43:11;;;;;;;9.70;3.75;;;;;;;0.01;0.00;59042.03;10310057;28;20075;-61
2021/07/09 19:48:10;;;;;;;10.38;3.38;;;;;;;0.01;0.00;59042.03;10311526;28;20079;-60
2021/07/09 19:53:09;;;;;;;9.07;4.85;;;;;;;0.01;0.00;59042.03;10316239;28;20528;-61
2021/07/09 19:58:08;;;;;;;10.15;3.33;;;;;;;0.01;0.00;59042.03;10316642;28;20493;-61
2021/07/09 20:03:09;;;;;;;8.82;3.20;;;;;;;0.01;0.00;59042.03;10315986;28;21010;-61
2021/07/09 20:08:07;;;;;;;8.70;2.88;;;;;;;0.01;0.00;59042.03;10312804;28;20047;-61
2021/07/09 20:13:06;;;;;;;5.95;2.70;;;;;;;0.01;0.00;59042.03;10312806;28;20142;-58
2021/07/09 20:18:08;;;;;;;5.40;3.08;;;;;;;0.01;0.00;59042.03;10313561;28;20072;-58
2021/07/09 20:23:10;;;;;;;4.32;2.10;;;;;;;0.01;0.00;59042.03;10313690;28;20182;-58
2021/07/09 20:28:09;;;;;;;5.18;2.80;;;;;;;0.01;0.00;59042.03;10311505;28;20477;-58
2021/07/09 20:33:08;;;;;;;4.35;2.63;;;;;;;0.01;0.00;59042.03;10314590;28;20119;-60
2021/07/09 20:38:08;;;;;;;4.13;2.65;;;;;;;0.01;0.00;59042.03;10316147;28;20086;-57
2021/07/09 20:43:10;;;;;;;5.28;2.35;;;;;;;0.01;0.00;59042.03;10315172;28;20533;-57
2021/07/09 20:48:10;;;;;;;3.42;2.55;;;;;;;0.01;0.00;59042.03;10316659;28;20518;-57
2021/07/09 20:53:10;;;;;;;3.95;2.42;;;;;;;0.01;0.00;59042.03;10315616;28;20044;-59
2021/07/09 20:58:09;;;;;;;4.85;2.50;;;;;;;0.01;0.00;59042.03;10314818;28;20509;-60
2021/07/09 21:03:08;;;;;;;4.47;2.53;;;;;;;0.01;0.00;59042.03;10319711;28;20076;-57
2021/07/09 21:08:08;;;;;;;2.70;2.33;;;;;;;0.01;0.00;59042.03;10301612;28;20037;-57
2021/07/09 21:13:08;;;;;;;6.28;2.60;;;;;;;0.01;0.00;59042.03;10302961;28;20136;-57
2021/07/09 21:18:07;;;;;;;5.25;2.22;;;;;;;0.01;0.00;59042.03;10281564;28;20543;-57
2021/07/09 21:23:06;;;;;;;4.03;1.90;;;;;;;0.01;0.00;59042.03;10282329;28;20084;-58
2021/07/09 21:28:06;;;;;;;8.30;2.42;;;;;;;0.01;0.00;59042.03;10282010;28;20513;-56
2021/07/09 21:33:06;;;;;;;5.60;2.47;;;;;;;0.01;0.00;59042.03;10282268;28;20074;-58
2021/07/09 21:38:05;;;;;;;8.88;2.35;;;;;;;0.01;0.00;59042.03;10281883;28;20422;-58
2021/07/09 21:43:06;;;;;;;5.88;2.63;;;;;;;0.01;0.00;59042.03;10281441;28;20081;-58
2021/07/09 21:48:08;;;;;;;7.28;2.53;;;;;;;0.01;0.00;59042.03;10245189;28;20052;-58
2021/07/09 21:53:07;;;;;;;8.45;2.50;;;;;;;0.01;0.00;59042.03;10240906;28;20527;-58
2021/07/09 21:58:05;;;;;;;4.47;2.40;;;;;;;0.01;0.00;59042.03;10240384;28;20076;-59
2021/07/09 22:03:16;;;;;;;14.40;2.92;;;;;;;0.01;0.00;59042.03;10240262;28;20077;-58
2021/07/09 22:08:16;;;;;;;3.80;2.60;;;;;;;0.01;0.00;59042.03;10240308;28;20426;-58
2021/07/09 22:13:15;;;;;;;5.13;2.25;;;;;;;0.01;0.00;59042.03;10238477;28;20073;-58
2021/07/09 22:18:14;;;;;;;3.22;2.30;;;;;;;0.01;0.00;59042.03;10239754;28;20077;-59
2021/07/09 22:23:14;;;;;;;7.18;2.80;;;;;;;0.01;0.00;59042.03;10239531;28;20098;-58
2021/07/09 22:28:13;;;;;;;5.25;2.47;;;;;;;0.01;0.00;59042.03;10240112;28;20502;-58
2021/07/09 22:33:11;;;;;;;4.80;2.20;;;;;;;0.01;0.00;59042.03;10239342;28;20046;-58
2021/07/09 22:38:10;;;;;;;2.55;2.10;;;;;;;0.01;0.00;59042.03;10239072;28;20049;-58
2021/07/09 22:43:10;;;;;;;4.13;2.60;;;;;;;0.01;0.00;59042.03;10238805;28;20077;-58
2021/07/09 22:48:09;;;;;;;5.63;2.20;;;;;;;0.01;0.00;59042.03;10238892;28;20213;-58
2021/07/09 22:53:08;;;;;;;2.50;2.20;;;;;;;0.01;0.00;59042.03;10238537;28;20064;-58
2021/07/09 22:58:07;;;;;;;3.30;2.20;;;;;;;0.01;0.00;59042.03;10238496;28;20069;-58
2021/07/09 23:03:07;;;;;;;5.82;2.47;;;;;;;0.01;0.00;59042.03;10237213;28;20089;-58
2021/07/09 23:08:06;;;;;;;4.97;2.22;;;;;;;0.01;0.00;59042.03;10237586;28;20499;-58
2021/07/09 23:13:05;;;;;;;5.15;2.95;;;;;;;0.01;0.00;59042.03;10237522;28;20478;-58
2021/07/09 23:18:04;;;;;;;6.80;2.25;;;;;;;0.01;0.00;59042.03;10237452;28;20041;-58
2021/07/09 23:23:05;;;;;;;5.90;2.95;;;;;;;0.01;0.00;59042.03;10236306;28;20085;-58
2021/07/09 23:28:05;;;;;;;2.88;2.35;;;;;;;0.01;0.00;59042.03;10237088;28;20072;-58
2021/07/09 23:33:03;;;;;;;4.18;1.95;;;;;;;0.01;0.00;59042.03;10236897;28;20054;-59
2021/07/09 23:38:02;;;;;;;4.82;2.45;;;;;;;0.01;0.00;59042.03;10236855;28;20074;-58
2021/07/09 23:43:02;;;;;;;3.25;2.45;;;;;;;0.01;0.00;59042.03;10236359;28;20085;-58